Time;durP1;ratioP1;P1;durP2;ratioP2;P2;SDS_P1;SDS_P2;PMS_P1;PMS_P2;Temp;Humidity;BMP_temperature;BMP_pressure;BME280_temperature;BME280_humidity;BME280_pressure;Samples;Min_cycle;Max_cycle;Signal;HPM_P1;HPM_P2
2022/06/24 00:04:01;;;;;;;11.40;5.65;;;;;19.40;100392.00;;;;10380078;28;20743;-77
2022/06/24 00:09:03;;;;;;;8.57;6.18;;;;;19.40;100386.00;;;;10381664;28;20187;-77
2022/06/24 00:14:08;;;;;;;8.75;5.90;;;;;19.30;100385.00;;;;10381336;28;20278;-77
2022/06/24 00:19:11;;;;;;;7.65;6.63;;;;;19.30;100390.00;;;;10380325;28;20203;-76
2022/06/24 00:24:22;;;;;;;16.25;6.60;;;;;19.30;100384.00;;;;10397041;28;20266;-76
2022/06/24 00:29:29;;;;;;;9.50;6.43;;;;;19.20;100371.00;;;;10413634;28;20199;-76
2022/06/24 00:34:36;;;;;;;10.50;6.68;;;;;19.20;100377.00;;;;10376018;28;20558;-76
2022/06/24 00:39:38;;;;;;;8.10;6.25;;;;;19.10;100354.00;;;;10380718;28;20203;-77
2022/06/24 00:44:49;;;;;;;11.93;7.80;;;;;19.00;100344.00;;;;10424867;28;20652;-76
2022/06/24 00:49:54;;;;;;;20.20;16.00;;;;;18.90;100322.00;;;;10394844;28;20237;-77
2022/06/24 00:54:56;;;;;;;16.60;13.13;;;;;18.70;100306.00;;;;10363805;28;20222;-77
2022/06/24 00:59:59;;;;;;;19.58;17.45;;;;;18.50;100303.00;;;;10397912;28;20309;-76
2022/06/24 01:05:05;;;;;;;24.35;17.88;;;;;18.40;100298.00;;;;10359296;28;20195;-76
2022/06/24 01:10:09;;;;;;;25.45;20.13;;;;;18.40;100298.00;;;;10395364;28;20186;-77
2022/06/24 01:15:12;;;;;;;29.80;22.25;;;;;18.40;100282.00;;;;10395839;28;20251;-77
2022/06/24 01:20:13;;;;;;;27.23;20.38;;;;;18.50;100273.00;;;;10378008;28;20207;-77
2022/06/24 01:25:15;;;;;;;24.08;19.33;;;;;18.50;100263.00;;;;10378881;28;20205;-76
2022/06/24 01:30:17;;;;;;;29.10;22.98;;;;;18.50;100255.00;;;;10378569;28;20233;-77
2022/06/24 01:35:19;;;;;;;34.15;25.27;;;;;18.50;100229.00;;;;10382327;28;20204;-77
2022/06/24 01:40:21;;;;;;;34.33;27.40;;;;;18.50;100230.00;;;;10354452;28;20215;-76
2022/06/24 01:45:23;;;;;;;34.00;26.55;;;;;18.60;100245.00;;;;10398054;28;20203;-77
2022/06/24 01:50:25;;;;;;;33.70;26.83;;;;;18.60;100244.00;;;;10411340;28;20261;-77
2022/06/24 01:55:27;;;;;;;36.45;26.25;;;;;18.60;100230.00;;;;10362253;28;20195;-77
2022/06/24 02:00:29;;;;;;;40.80;30.15;;;;;18.60;100229.00;;;;10410243;28;20226;-77
2022/06/24 02:05:31;;;;;;;40.42;30.27;;;;;18.60;100237.00;;;;10378757;28;20213;-77
2022/06/24 02:15:55;;;;;;;45.05;31.20;;;;;18.60;100237.00;;;;10384560;28;20190;-77
2022/06/24 02:20:58;;;;;;;44.30;30.38;;;;;18.60;100237.00;;;;10403285;28;20565;-76
2022/06/24 02:26:00;;;;;;;48.58;32.88;;;;;18.60;100236.00;;;;10402201;28;20609;-77
2022/06/24 02:31:02;;;;;;;43.10;32.38;;;;;18.60;100235.00;;;;10352829;28;20199;-77
2022/06/24 02:36:05;;;;;;;43.33;32.38;;;;;18.70;100239.00;;;;10420526;28;20298;-77
2022/06/24 02:41:08;;;;;;;38.50;30.00;;;;;18.70;100256.00;;;;10405142;28;20218;-77
2022/06/24 02:46:12;;;;;;;43.78;33.22;;;;;18.70;100255.00;;;;10403766;28;20191;-77
2022/06/24 02:51:15;;;;;;;53.47;36.70;;;;;18.70;100249.00;;;;10402159;28;20214;-77
2022/06/24 02:56:17;;;;;;;45.97;32.80;;;;;18.60;100246.00;;;;10403033;28;20214;-77
2022/06/24 03:01:19;;;;;;;47.28;34.20;;;;;18.60;100252.00;;;;10370072;28;20214;-78
2022/06/24 03:06:21;;;;;;;52.10;36.78;;;;;18.50;100247.00;;;;10442285;28;20230;-77
2022/06/24 03:11:23;;;;;;;46.08;35.53;;;;;18.60;100249.00;;;;10419092;28;20202;-77
2022/06/24 03:16:25;;;;;;;41.20;32.33;;;;;18.60;100249.00;;;;10417580;28;20646;-77
2022/06/24 03:21:27;;;;;;;39.95;29.63;;;;;18.70;100245.00;;;;10385794;28;20211;-77
2022/06/24 03:26:29;;;;;;;33.25;25.80;;;;;18.80;100244.00;;;;10400901;28;20190;-77
2022/06/24 03:31:31;;;;;;;24.67;19.65;;;;;18.80;100227.00;;;;10366109;28;20237;-77
2022/06/24 03:36:33;;;;;;;20.90;17.15;;;;;18.80;100238.00;;;;10401845;28;20642;-77
2022/06/24 03:41:35;;;;;;;16.88;11.88;;;;;18.80;100233.00;;;;10385093;28;20203;-77
2022/06/24 03:46:37;;;;;;;20.38;12.20;;;;;18.70;100236.00;;;;10400196;28;20670;-78
2022/06/24 03:51:39;;;;;;;23.92;16.40;;;;;18.60;100229.00;;;;10398720;28;20400;-78
2022/06/24 03:56:41;;;;;;;54.07;34.47;;;;;18.60;100237.00;;;;10381360;28;20314;-76
2022/06/24 04:01:46;;;;;;;61.92;40.42;;;;;18.60;100234.00;;;;10365626;28;20238;-77
2022/06/24 04:06:48;;;;;;;53.20;37.33;;;;;18.60;100229.00;;;;10397855;28;20245;-77
2022/06/24 04:11:51;;;;;;;45.80;25.90;;;;;18.60;100226.00;;;;10409694;28;20228;-76
2022/06/24 04:16:53;;;;;;;37.17;26.17;;;;;18.60;100214.00;;;;10356869;28;20195;-76
2022/06/24 04:21:55;;;;;;;32.85;23.83;;;;;18.50;100218.00;;;;10324138;28;20266;-77
2022/06/24 04:26:57;;;;;;;29.40;22.98;;;;;18.50;100218.00;;;;10381362;28;20188;-76
2022/06/24 04:31:59;;;;;;;27.52;23.85;;;;;18.50;100222.00;;;;10396500;28;20249;-77
2022/06/24 04:37:01;;;;;;;26.80;18.27;;;;;18.40;100215.00;;;;10364562;28;20351;-76
2022/06/24 04:42:03;;;;;;;20.42;17.90;;;;;18.30;100218.00;;;;10395349;28;20295;-77
2022/06/24 04:47:05;;;;;;;24.35;18.42;;;;;18.30;100221.00;;;;10395522;28;20647;-76
2022/06/24 04:52:07;;;;;;;23.42;19.40;;;;;18.20;100229.00;;;;10396379;28;20191;-77
2022/06/24 04:57:11;;;;;;;23.77;18.08;;;;;18.30;100220.00;;;;10395605;28;20225;-77
2022/06/24 05:02:13;;;;;;;23.80;18.52;;;;;18.40;100217.00;;;;10378902;28;20233;-77
2022/06/24 05:07:15;;;;;;;20.67;17.85;;;;;18.40;100211.00;;;;10418190;28;20194;-77
2022/06/24 05:12:17;;;;;;;25.73;18.95;;;;;18.50;100222.00;;;;10412174;28;20245;-77
2022/06/24 05:17:19;;;;;;;23.08;19.55;;;;;18.60;100220.00;;;;10378402;28;20191;-77
2022/06/24 05:22:21;;;;;;;21.40;17.98;;;;;18.70;100220.00;;;;10411679;28;20241;-77
2022/06/24 05:27:23;;;;;;;22.23;17.05;;;;;18.80;100223.00;;;;10395176;28;20273;-77
2022/06/24 05:32:25;;;;;;;21.40;17.90;;;;;18.90;100220.00;;;;10405137;28;20217;-77
2022/06/24 05:37:27;;;;;;;20.55;17.45;;;;;19.00;100222.00;;;;10394874;28;20227;-77
2022/06/24 05:42:29;;;;;;;20.27;15.98;;;;;19.00;100232.00;;;;10409156;28;20202;-77
2022/06/24 05:47:33;;;;;;;18.08;14.10;;;;;18.90;100224.00;;;;10407114;28;20225;-77
2022/06/24 05:57:56;;;;;;;15.95;12.35;;;;;19.10;100237.00;;;;10396803;28;20214;-77
2022/06/24 06:02:58;;;;;;;11.50;9.00;;;;;19.30;100228.00;;;;10387447;28;20354;-77
2022/06/24 06:08:00;;;;;;;14.55;9.32;;;;;19.40;100226.00;;;;10386733;28;20195;-77
2022/06/24 06:13:03;;;;;;;12.15;8.85;;;;;19.70;100227.00;;;;10354151;28;20622;-77
2022/06/24 06:18:05;;;;;;;12.07;9.23;;;;;19.90;100220.00;;;;10398004;28;20194;-77
2022/06/24 06:23:07;;;;;;;11.90;9.68;;;;;20.00;100212.00;;;;10385746;28;20242;-77
2022/06/24 06:28:09;;;;;;;11.30;9.63;;;;;20.30;100214.00;;;;10418780;28;20222;-77
2022/06/24 06:33:11;;;;;;;16.98;9.90;;;;;20.60;100222.00;;;;10416362;28;20217;-77
2022/06/24 06:38:15;;;;;;;17.60;13.13;;;;;21.50;100227.00;;;;10344078;28;20206;-77
2022/06/24 06:43:16;;;;;;;15.40;11.43;;;;;21.90;100231.00;;;;10361512;28;20223;-77
2022/06/24 06:48:19;;;;;;;13.13;10.10;;;;;21.60;100238.00;;;;10361791;28;20739;-77
2022/06/24 06:53:22;;;;;;;11.90;10.18;;;;;21.30;100238.00;;;;10400287;28;20680;-78
2022/06/24 06:58:24;;;;;;;15.27;10.10;;;;;21.30;100238.00;;;;10363984;28;20709;-77
2022/06/24 07:03:26;;;;;;;12.65;8.18;;;;;21.00;100238.00;;;;10401879;28;20207;-77
2022/06/24 07:08:29;;;;;;;9.85;7.35;;;;;21.00;100249.00;;;;10401335;28;20274;-77
2022/06/24 07:13:31;;;;;;;12.10;7.72;;;;;21.10;100237.00;;;;10369778;28;20210;-77
2022/06/24 07:18:33;;;;;;;11.50;6.18;;;;;20.90;100244.00;;;;10407749;28;20660;-78
2022/06/24 07:23:35;;;;;;;11.95;6.45;;;;;21.00;100243.00;;;;10406246;28;20203;-78
2022/06/24 07:28:38;;;;;;;8.00;6.75;;;;;23.10;100235.00;;;;10402422;28;20218;-77
2022/06/24 07:33:40;;;;;;;10.23;5.28;;;;;24.50;100249.00;;;;10394515;28;20265;-77
2022/06/24 07:38:45;;;;;;;6.90;5.03;;;;;24.00;100250.00;;;;10379551;28;20188;-78
2022/06/24 07:43:52;;;;;;;6.25;4.43;;;;;24.80;100232.00;;;;10367430;28;20207;-77
2022/06/24 07:48:58;;;;;;;6.60;4.95;;;;;25.20;100249.00;;;;10379342;28;20693;-77
2022/06/24 07:54:07;;;;;;;8.77;4.63;;;;;25.40;100239.00;;;;10355509;28;20191;-77
2022/06/24 07:59:23;;;;;;;5.90;4.15;;;;;25.20;100239.00;;;;10381349;28;20763;-78
2022/06/24 08:04:37;;;;;;;5.38;4.10;;;;;24.60;100237.00;;;;10358173;28;20211;-77
2022/06/24 08:09:42;;;;;;;4.65;4.25;;;;;24.20;100232.00;;;;10398332;28;20195;-76
2022/06/24 08:14:46;;;;;;;4.85;3.83;;;;;22.60;100253.00;;;;10398191;28;20179;-79
2022/06/24 08:19:48;;;;;;;1.17;0.80;;;;;21.10;100286.00;;;;10381712;28;20841;-77
2022/06/24 08:24:50;;;;;;;3.83;1.40;;;;;19.90;100297.00;;;;10375058;28;20305;-78
2022/06/24 08:30:12;;;;;;;3.03;0.80;;;;;18.90;100288.00;;;;10348300;28;20190;-77
2022/06/24 08:35:14;;;;;;;0.80;0.80;;;;;18.50;100280.00;;;;10361971;28;20218;-77
2022/06/24 08:40:29;;;;;;;1.88;0.63;;;;;18.00;100267.00;;;;10394018;28;20195;-77
2022/06/24 08:45:35;;;;;;;0.70;0.55;;;;;17.90;100267.00;;;;10382639;28;20561;-77
2022/06/24 08:50:37;;;;;;;1.30;0.80;;;;;17.90;100255.00;;;;10396856;28;20207;-77
2022/06/24 08:55:41;;;;;;;2.35;1.00;;;;;18.00;100227.00;;;;10373268;28;20401;-77
2022/06/24 09:00:43;;;;;;;2.55;1.00;;;;;18.10;100221.00;;;;10354599;28;20226;-77
2022/06/24 09:05:47;;;;;;;1.77;0.50;;;;;18.40;100206.00;;;;10399377;28;20224;-77
2022/06/24 09:11:06;;;;;;;1.60;0.95;;;;;18.30;100199.00;;;;10377628;28;20195;-77
2022/06/24 09:16:09;;;;;;;2.88;1.10;;;;;18.40;100188.00;;;;10363681;28;20199;-78
2022/06/24 09:21:24;;;;;;;1.58;0.80;;;;;18.60;100195.00;;;;10377426;28;20202;-78
2022/06/24 09:26:30;;;;;;;1.27;0.80;;;;;18.70;100197.00;;;;10335305;28;20299;-77
2022/06/24 09:31:34;;;;;;;2.55;1.10;;;;;19.00;100200.00;;;;10363331;28;20198;-77
2022/06/24 09:36:41;;;;;;;1.67;0.63;;;;;20.60;100191.00;;;;10408656;28;20186;-78
2022/06/24 09:42:08;;;;;;;2.22;1.13;;;;;22.90;100181.00;;;;10393506;28;20210;-77
2022/06/24 09:47:22;;;;;;;1.25;0.77;;;;;24.50;100186.00;;;;10375580;28;20198;-77
2022/06/24 09:52:25;;;;;;;2.90;1.08;;;;;24.20;100192.00;;;;10374537;28;20194;-77
2022/06/24 09:57:28;;;;;;;2.45;1.10;;;;;24.10;100194.00;;;;10360476;28;20210;-77
2022/06/24 10:02:32;;;;;;;1.80;1.10;;;;;24.20;100198.00;;;;10377279;28;20234;-76
2022/06/24 10:07:37;;;;;;;3.05;1.33;;;;;24.20;100205.00;;;;10371975;28;20198;-76
2022/06/24 10:12:41;;;;;;;2.38;1.00;;;;;24.60;100207.00;;;;10388271;28;20195;-76
2022/06/24 10:17:46;;;;;;;1.35;0.95;;;;;25.60;100214.00;;;;10381651;28;20249;-76
2022/06/24 10:22:54;;;;;;;0.95;0.80;;;;;26.40;100208.00;;;;10392500;28;20203;-75
2022/06/24 10:27:59;;;;;;;2.28;0.88;;;;;26.40;100212.00;;;;10325367;28;20198;-76
2022/06/24 10:33:21;;;;;;;1.10;1.00;;;;;25.50;100212.00;;;;10391925;28;20199;-75
2022/06/24 10:38:24;;;;;;;2.17;0.75;;;;;27.10;100216.00;;;;10354450;28;20214;-76
2022/06/24 10:43:38;;;;;;;2.67;0.85;;;;;28.00;100222.00;;;;10412218;28;20223;-75
2022/06/24 10:48:43;;;;;;;4.10;0.60;;;;;26.90;100214.00;;;;10383223;28;20249;-75
2022/06/24 10:54:06;;;;;;;2.22;1.15;;;;;26.50;100208.00;;;;10366983;28;20206;-76
2022/06/24 10:59:09;;;;;;;2.35;1.15;;;;;25.70;100207.00;;;;10357195;28;20227;-76
2022/06/24 11:04:20;;;;;;;4.53;1.30;;;;;27.20;100185.00;;;;10381745;28;20206;-76
2022/06/24 11:09:27;;;;;;;2.33;1.17;;;;;27.40;100179.00;;;;10395360;28;20590;-76
2022/06/24 11:14:30;;;;;;;2.83;1.10;;;;;28.80;100189.00;;;;10368643;28;20199;-76
2022/06/24 11:19:39;;;;;;;1.35;1.20;;;;;29.20;100186.00;;;;10407674;28;20222;-76
2022/06/24 11:24:45;;;;;;;1.30;1.20;;;;;28.70;100185.00;;;;10383745;28;20594;-76
2022/06/24 11:29:48;;;;;;;3.92;1.38;;;;;28.70;100185.00;;;;10404945;28;20183;-76
2022/06/24 11:34:51;;;;;;;1.20;1.10;;;;;29.10;100182.00;;;;10388527;28;20262;-76
2022/06/24 11:39:58;;;;;;;2.35;1.10;;;;;29.60;100172.00;;;;10376808;28;20191;-77
2022/06/24 11:45:00;;;;;;;3.30;1.30;;;;;30.00;100168.00;;;;10397343;28;20202;-77
2022/06/24 11:50:02;;;;;;;3.25;1.17;;;;;29.50;100160.00;;;;10378934;28;20226;-76
2022/06/24 11:55:22;;;;;;;0.90;0.90;;;;;29.60;100153.00;;;;10376560;28;20199;-76
2022/06/24 12:00:27;;;;;;;1.15;1.00;;;;;29.80;100143.00;;;;10382156;28;20230;-76
2022/06/24 12:05:31;;;;;;;0.80;0.80;;;;;29.10;100142.00;;;;10365450;28;20256;-76
2022/06/24 12:10:34;;;;;;;1.00;0.93;;;;;29.00;100155.00;;;;10396841;28;20194;-76
2022/06/24 12:15:36;;;;;;;4.20;1.30;;;;;29.30;100141.00;;;;10397439;28;20187;-76
2022/06/24 12:20:38;;;;;;;1.15;0.93;;;;;29.30;100138.00;;;;10389287;28;20269;-77
2022/06/24 12:25:46;;;;;;;0.80;0.80;;;;;30.50;100136.00;;;;10392172;28;20277;-76
2022/06/24 12:31:02;;;;;;;3.97;1.15;;;;;29.60;100152.00;;;;10374831;28;20235;-77
2022/06/24 12:36:09;;;;;;;2.83;1.05;;;;;30.10;100142.00;;;;10385808;28;20724;-77
2022/06/24 12:41:14;;;;;;;1.73;0.90;;;;;31.10;100134.00;;;;10398959;28;20805;-77
2022/06/24 12:46:16;;;;;;;3.13;0.60;;;;;30.30;100140.00;;;;10395815;28;20675;-77
2022/06/24 12:51:24;;;;;;;1.85;1.08;;;;;31.20;100136.00;;;;10366268;28;20244;-77
2022/06/24 12:56:26;;;;;;;1.52;1.00;;;;;31.00;100143.00;;;;10375166;28;20467;-77
2022/06/24 13:01:29;;;;;;;1.40;1.10;;;;;29.90;100149.00;;;;10366899;28;20229;-77
2022/06/24 13:06:32;;;;;;;1.58;1.25;;;;;30.20;100138.00;;;;10386522;28;20244;-77
2022/06/24 13:11:34;;;;;;;1.70;1.20;;;;;30.00;100122.00;;;;10412767;28;20187;-78
2022/06/24 13:16:37;;;;;;;4.55;1.25;;;;;29.70;100132.00;;;;10397865;28;20191;-76
2022/06/24 13:21:39;;;;;;;5.03;1.30;;;;;29.00;100133.00;;;;10385977;28;20217;-76
2022/06/24 13:26:41;;;;;;;2.40;1.50;;;;;28.30;100133.00;;;;10357391;28;20535;-76
2022/06/24 13:31:43;;;;;;;1.92;1.65;;;;;27.50;100131.00;;;;10394368;28;20193;-76
2022/06/24 13:36:46;;;;;;;1.50;1.40;;;;;27.80;100123.00;;;;10374267;28;20195;-76
2022/06/24 13:41:48;;;;;;;1.92;1.42;;;;;28.30;100126.00;;;;10378975;28;20199;-75
2022/06/24 13:46:52;;;;;;;1.35;1.25;;;;;28.50;100125.00;;;;10339406;28;20290;-75
2022/06/24 13:51:56;;;;;;;2.05;1.75;;;;;29.90;100114.00;;;;10369103;28;20270;-76
2022/06/24 13:56:58;;;;;;;2.05;1.38;;;;;30.60;100111.00;;;;10326165;28;20212;-77
2022/06/24 14:02:01;;;;;;;1.95;1.55;;;;;30.70;100112.00;;;;10407498;28;20215;-76
2022/06/24 14:07:23;;;;;;;1.33;1.23;;;;;31.10;100100.00;;;;10351968;28;20274;-76
2022/06/24 14:12:25;;;;;;;6.22;1.42;;;;;31.60;100099.00;;;;10394534;28;20179;-77
2022/06/24 14:17:27;;;;;;;1.48;1.30;;;;;30.20;100081.00;;;;10374223;28;20202;-76
2022/06/24 14:22:35;;;;;;;1.10;1.00;;;;;32.20;100091.00;;;;10427536;28;20214;-76
2022/06/24 14:27:38;;;;;;;2.00;1.30;;;;;31.80;100070.00;;;;10403264;28;20195;-77
2022/06/24 14:32:40;;;;;;;0.93;0.93;;;;;35.00;100068.00;;;;10384315;28;20183;-77
2022/06/24 14:43:03;;;;;;;2.22;1.02;;;;;28.30;100095.00;;;;10358530;28;20222;-78
2022/06/24 14:48:06;;;;;;;1.65;1.08;;;;;26.50;100100.00;;;;10378386;28;20204;-77
2022/06/24 14:53:08;;;;;;;1.15;0.90;;;;;25.20;100142.00;;;;10373012;28;20683;-76
2022/06/24 14:58:14;;;;;;;1.60;0.80;;;;;24.00;100143.00;;;;10397673;28;20223;-76
2022/06/24 15:03:16;;;;;;;2.42;1.05;;;;;22.80;100139.00;;;;10400359;28;20207;-76
2022/06/24 15:08:18;;;;;;;2.70;0.82;;;;;22.70;100127.00;;;;10390439;28;20226;-75
2022/06/24 15:13:21;;;;;;;1.20;0.77;;;;;23.00;100120.00;;;;10363454;28;20960;-75
2022/06/24 15:18:26;;;;;;;1.98;0.90;;;;;23.40;100103.00;;;;10382428;28;20195;-76
2022/06/24 15:23:28;;;;;;;1.30;0.80;;;;;23.90;100097.00;;;;10369796;28;20534;-75
2022/06/24 15:28:30;;;;;;;2.22;1.05;;;;;24.00;100107.00;;;;10395968;28;20654;-77
2022/06/24 15:33:32;;;;;;;1.15;1.05;;;;;24.10;100111.00;;;;10403600;28;20198;-76
2022/06/24 15:38:35;;;;;;;2.65;1.30;;;;;24.50;100118.00;;;;10373300;28;21183;-76
2022/06/24 15:43:39;;;;;;;2.03;1.20;;;;;25.10;100110.00;;;;10403197;28;20199;-76
2022/06/24 15:49:07;;;;;;;1.50;0.90;;;;;26.60;100101.00;;;;10396799;28;20191;-76
2022/06/24 15:54:09;;;;;;;1.10;1.00;;;;;26.10;100113.00;;;;10392966;28;20261;-76
2022/06/24 15:59:11;;;;;;;1.45;0.98;;;;;25.20;100119.00;;;;10403422;28;20231;-76
2022/06/24 16:04:13;;;;;;;0.77;0.77;;;;;24.30;100128.00;;;;10386611;28;20207;-76
2022/06/24 16:09:16;;;;;;;1.30;1.00;;;;;24.00;100123.00;;;;10388955;28;20279;-76
2022/06/24 16:14:18;;;;;;;0.60;0.60;;;;;24.00;100120.00;;;;10386894;28;20195;-75
2022/06/24 16:19:21;;;;;;;1.15;0.77;;;;;24.00;100132.00;;;;10373959;28;20289;-75
2022/06/24 16:24:23;;;;;;;3.33;0.90;;;;;24.00;100129.00;;;;10373202;28;20674;-75
2022/06/24 16:29:27;;;;;;;1.08;0.98;;;;;23.80;100130.00;;;;10394704;28;20191;-75
2022/06/24 16:34:29;;;;;;;1.75;1.13;;;;;23.60;100135.00;;;;10410098;28;21115;-76
2022/06/24 16:39:32;;;;;;;1.08;0.85;;;;;23.50;100136.00;;;;10381956;28;20547;-75
2022/06/24 16:44:34;;;;;;;2.22;1.10;;;;;23.60;100139.00;;;;10391528;28;20207;-75
2022/06/24 16:49:36;;;;;;;1.20;1.00;;;;;23.90;100140.00;;;;10381477;28;20187;-75
2022/06/24 16:54:38;;;;;;;2.47;1.55;;;;;24.10;100152.00;;;;10394786;28;20287;-76
2022/06/24 16:59:40;;;;;;;1.67;1.15;;;;;24.20;100150.00;;;;10367065;28;20226;-76
2022/06/24 17:04:42;;;;;;;3.35;1.70;;;;;24.40;100143.00;;;;10385310;28;20226;-76
2022/06/24 17:09:45;;;;;;;2.45;1.58;;;;;25.00;100145.00;;;;10383587;28;20902;-76
2022/06/24 17:14:47;;;;;;;1.75;1.65;;;;;25.50;100140.00;;;;10364199;28;20190;-76
2022/06/24 17:19:56;;;;;;;2.38;1.73;;;;;25.60;100147.00;;;;10404337;28;20203;-76
2022/06/24 17:25:03;;;;;;;2.80;1.50;;;;;25.70;100147.00;;;;10367730;28;20614;-76
2022/06/24 17:30:07;;;;;;;1.73;1.63;;;;;25.80;100164.00;;;;10407757;28;20241;-76
2022/06/24 17:35:13;;;;;;;3.55;1.45;;;;;25.90;100154.00;;;;10377681;28;20176;-76
2022/06/24 17:40:15;;;;;;;2.35;1.20;;;;;25.60;100158.00;;;;10392879;28;20199;-76
2022/06/24 17:45:17;;;;;;;1.55;0.90;;;;;25.30;100151.00;;;;10371339;28;20203;-76
2022/06/24 17:50:20;;;;;;;2.55;0.88;;;;;24.70;100150.00;;;;10377159;28;20195;-77
2022/06/24 17:55:23;;;;;;;1.35;1.10;;;;;24.00;100141.00;;;;10395394;28;20195;-76
2022/06/24 18:00:25;;;;;;;2.92;1.10;;;;;23.60;100141.00;;;;10396270;28;20242;-76
2022/06/24 18:05:27;;;;;;;5.03;1.08;;;;;23.30;100140.00;;;;10374202;28;20632;-76
2022/06/24 18:10:29;;;;;;;2.15;0.82;;;;;23.10;100133.00;;;;10390265;28;20273;-76
2022/06/24 18:15:32;;;;;;;3.17;1.10;;;;;23.30;100141.00;;;;10378569;28;20191;-76
2022/06/24 18:20:34;;;;;;;3.78;1.27;;;;;23.30;100145.00;;;;10351757;28;20195;-76
2022/06/24 18:25:37;;;;;;;2.72;0.98;;;;;23.00;100147.00;;;;10410656;28;20233;-76
2022/06/24 18:30:40;;;;;;;1.45;1.00;;;;;22.60;100161.00;;;;10392452;28;20210;-76
2022/06/24 18:35:42;;;;;;;1.73;1.08;;;;;22.30;100173.00;;;;10398133;28;20195;-77
2022/06/24 18:40:45;;;;;;;2.65;1.20;;;;;21.90;100174.00;;;;10374550;28;20195;-76
2022/06/24 18:45:47;;;;;;;3.58;1.10;;;;;21.70;100186.00;;;;10410561;28;20203;-76
2022/06/24 18:50:52;;;;;;;2.55;0.98;;;;;21.50;100191.00;;;;10388328;28;20211;-76
2022/06/24 18:55:55;;;;;;;1.50;1.02;;;;;21.40;100197.00;;;;10391737;28;20195;-77
2022/06/24 19:00:57;;;;;;;1.70;1.05;;;;;21.30;100194.00;;;;10378813;28;20249;-76
2022/06/24 19:05:59;;;;;;;1.88;1.35;;;;;21.30;100208.00;;;;10367543;28;20206;-77
2022/06/24 19:11:01;;;;;;;1.42;1.10;;;;;21.20;100216.00;;;;10404638;28;20190;-76
2022/06/24 19:16:03;;;;;;;1.23;1.20;;;;;21.20;100214.00;;;;10383059;28;20735;-75
2022/06/24 19:21:05;;;;;;;3.00;1.20;;;;;21.10;100220.00;;;;10397164;28;20195;-76
2022/06/24 19:26:07;;;;;;;2.25;0.80;;;;;21.00;100228.00;;;;10413940;28;20261;-76
2022/06/24 19:31:09;;;;;;;2.03;1.20;;;;;20.90;100231.00;;;;10411368;28;20195;-76
2022/06/24 19:36:12;;;;;;;2.13;1.23;;;;;20.80;100233.00;;;;10377107;28;20191;-77
2022/06/24 19:41:15;;;;;;;1.73;1.38;;;;;20.60;100243.00;;;;10391883;28;20623;-76
2022/06/24 19:46:17;;;;;;;4.55;1.50;;;;;20.40;100251.00;;;;10402251;28;20203;-76
2022/06/24 19:51:20;;;;;;;2.65;2.25;;;;;20.30;100263.00;;;;10362933;28;20191;-76
2022/06/24 19:56:22;;;;;;;3.20;2.22;;;;;20.10;100267.00;;;;10382290;28;20214;-76
2022/06/24 20:06:45;;;;;;;2.22;2.03;;;;;20.00;100279.00;;;;10396917;28;20214;-76
2022/06/24 20:12:03;;;;;;;7.70;2.38;;;;;19.80;100299.00;;;;10377705;28;20290;-76
2022/06/24 20:17:06;;;;;;;3.40;1.98;;;;;19.00;100303.00;;;;10378218;28;20617;-76
2022/06/24 20:22:08;;;;;;;5.57;1.90;;;;;18.50;100311.00;;;;10403988;28;20270;-76
2022/06/24 20:27:12;;;;;;;3.65;2.30;;;;;18.30;100307.00;;;;10371387;28;20203;-76
2022/06/24 20:32:14;;;;;;;4.32;2.00;;;;;18.20;100322.00;;;;10389099;28;20191;-77
2022/06/24 20:37:17;;;;;;;5.43;2.75;;;;;18.10;100321.00;;;;10395080;28;20262;-77
2022/06/24 20:42:19;;;;;;;7.10;2.95;;;;;17.90;100320.00;;;;10398441;28;20275;-76
2022/06/24 20:47:21;;;;;;;5.60;2.80;;;;;17.80;100334.00;;;;10374542;28;20202;-76
2022/06/24 20:52:23;;;;;;;4.30;2.80;;;;;17.80;100335.00;;;;10384834;28;20194;-76
2022/06/24 20:57:25;;;;;;;4.75;2.80;;;;;17.70;100342.00;;;;10415569;28;20219;-76
2022/06/24 21:02:27;;;;;;;7.53;2.88;;;;;17.70;100345.00;;;;10376242;28;20601;-75
2022/06/24 21:07:31;;;;;;;5.55;2.83;;;;;17.70;100344.00;;;;10383067;28;20202;-75
2022/06/24 21:12:34;;;;;;;7.28;3.42;;;;;17.70;100342.00;;;;10375447;28;20215;-76
2022/06/24 21:17:36;;;;;;;5.75;3.03;;;;;17.70;100340.00;;;;10392474;28;20191;-76
2022/06/24 21:22:38;;;;;;;6.28;3.28;;;;;17.70;100347.00;;;;10396652;28;20241;-77
2022/06/24 21:27:40;;;;;;;4.05;2.67;;;;;17.80;100340.00;;;;10393481;28;20254;-76
2022/06/24 21:32:42;;;;;;;7.53;2.60;;;;;17.80;100345.00;;;;10396722;28;20223;-77
2022/06/24 21:37:44;;;;;;;4.15;2.45;;;;;17.80;100345.00;;;;10386443;28;20249;-76
2022/06/24 21:42:46;;;;;;;2.65;2.35;;;;;17.80;100345.00;;;;10408408;28;20210;-77
2022/06/24 21:47:48;;;;;;;5.68;3.20;;;;;17.80;100354.00;;;;10388846;28;20214;-77
2022/06/24 21:52:51;;;;;;;5.70;2.85;;;;;17.80;100355.00;;;;10369751;28;20187;-76
2022/06/24 21:57:53;;;;;;;6.15;2.70;;;;;17.90;100350.00;;;;10403687;28;20254;-76
2022/06/24 22:02:55;;;;;;;3.60;2.80;;;;;17.90;100359.00;;;;10407256;28;20213;-76
2022/06/24 22:07:56;;;;;;;3.38;2.63;;;;;17.90;100357.00;;;;10409276;28;20622;-76
2022/06/24 22:12:58;;;;;;;8.20;2.92;;;;;17.90;100354.00;;;;10394905;28;20199;-76
2022/06/24 22:18:00;;;;;;;4.57;2.60;;;;;17.90;100359.00;;;;10379291;28;20306;-76
2022/06/24 22:23:03;;;;;;;6.03;2.80;;;;;17.80;100363.00;;;;10426191;28;20726;-76
2022/06/24 22:28:05;;;;;;;4.05;2.83;;;;;17.70;100371.00;;;;10408269;28;20195;-76
2022/06/24 22:33:07;;;;;;;3.33;2.63;;;;;17.60;100372.00;;;;10393133;28;20552;-76
2022/06/24 22:38:10;;;;;;;5.78;2.50;;;;;17.50;100369.00;;;;10398649;28;20195;-76
2022/06/24 22:43:12;;;;;;;5.72;3.45;;;;;17.40;100373.00;;;;10383475;28;20206;-77
2022/06/24 22:48:14;;;;;;;5.32;2.95;;;;;17.40;100365.00;;;;10378674;28;20550;-76
2022/06/24 22:53:16;;;;;;;4.38;2.65;;;;;17.30;100367.00;;;;10398624;28;20265;-76
2022/06/24 22:58:23;;;;;;;5.15;2.40;;;;;17.30;100360.00;;;;10388712;28;20253;-76
2022/06/24 23:03:26;;;;;;;4.22;2.75;;;;;17.20;100356.00;;;;10392206;28;20210;-77
2022/06/24 23:08:28;;;;;;;5.22;2.80;;;;;17.10;100362.00;;;;10364277;28;20206;-77
2022/06/24 23:13:33;;;;;;;6.45;2.60;;;;;17.10;100364.00;;;;10386518;28;20198;-77
2022/06/24 23:18:35;;;;;;;5.97;3.33;;;;;17.00;100367.00;;;;10400449;28;20676;-77
2022/06/24 23:23:39;;;;;;;7.22;3.10;;;;;17.00;100364.00;;;;10371257;28;20246;-77
2022/06/24 23:28:43;;;;;;;4.10;2.63;;;;;16.90;100373.00;;;;10403638;28;20201;-77
2022/06/24 23:33:45;;;;;;;3.35;2.33;;;;;16.80;100373.00;;;;10407918;28;20649;-77
2022/06/24 23:38:47;;;;;;;4.95;2.90;;;;;16.80;100375.00;;;;10374369;28;20195;-77
2022/06/24 23:43:49;;;;;;;3.07;2.50;;;;;16.70;100378.00;;;;10385742;28;20211;-77
2022/06/24 23:54:12;;;;;;;5.30;2.73;;;;;16.50;100370.00;;;;10401553;28;20183;-77
2022/06/24 23:59:14;;;;;;;4.83;3.00;;;;;16.50;100380.00;;;;10381710;28;20696;-77
